TimeCDT,TemperatureF,Dew PointF,Humidity,Sea Level PressureIn,VisibilityMPH,Wind Direction,Wind SpeedMPH,Gust SpeedMPH,PrecipitationIn,Events,Conditions,WindDirDegrees,DateUTC
12:15 AM,72.0,55.9,57,30.02,10.0,South,6.9,-,N/A,,Clear,170,2013-07-13 05:15:00
12:35 AM,70.7,56.3,60,30.04,10.0,SSE,6.9,-,N/A,,Clear,150,2013-07-13 05:35:00
12:55 AM,70.2,56.3,61,30.04,10.0,SSE,6.9,-,N/A,,Clear,150,2013-07-13 05:55:00
1:15 AM,69.8,55.8,61,30.04,10.0,SSE,8.1,-,N/A,,Scattered Clouds,150,2013-07-13 06:15:00
1:35 AM,68.9,55.6,62,30.03,10.0,SE,8.1,-,N/A,,Clear,140,2013-07-13 06:35:00
1:55 AM,68.4,55.4,63,30.03,10.0,SSE,8.1,-,N/A,,Clear,150,2013-07-13 06:55:00
2:15 AM,68.0,55.4,64,30.03,10.0,SSE,6.9,-,N/A,,Clear,150,2013-07-13 07:15:00
2:35 AM,68.0,54.9,63,30.02,10.0,SSE,6.9,-,N/A,,Clear,150,2013-07-13 07:35:00
2:55 AM,68.0,54.7,62,30.01,10.0,SSE,8.1,-,N/A,,Clear,150,2013-07-13 07:55:00
3:15 AM,68.2,54.5,62,30.01,10.0,SSE,10.4,-,N/A,,Clear,160,2013-07-13 08:15:00
3:35 AM,68.0,54.5,62,30.02,10.0,SSE,6.9,-,N/A,,Clear,160,2013-07-13 08:35:00
3:55 AM,67.6,54.5,63,30.03,10.0,SSE,8.1,-,N/A,,Scattered Clouds,160,2013-07-13 08:55:00
4:15 AM,67.5,54.5,63,30.03,10.0,SSE,5.8,-,N/A,,Scattered Clouds,160,2013-07-13 09:15:00
4:35 AM,67.1,54.7,64,30.03,10.0,SSE,8.1,-,N/A,,Clear,160,2013-07-13 09:35:00
4:55 AM,67.3,54.5,63,30.02,10.0,SSE,5.8,-,N/A,,Scattered Clouds,160,2013-07-13 09:55:00
5:15 AM,66.7,54.5,65,30.02,10.0,SSE,8.1,-,N/A,,Scattered Clouds,150,2013-07-13 10:15:00
5:55 AM,66.4,54.5,66,30.02,10.0,SSE,8.1,-,N/A,,Clear,160,2013-07-13 10:55:00
6:15 AM,66.2,54.7,66,30.03,10.0,SSE,5.8,-,N/A,,Scattered Clouds,150,2013-07-13 11:15:00
6:35 AM,66.4,54.7,66,30.03,10.0,SSE,6.9,-,N/A,,Scattered Clouds,160,2013-07-13 11:35:00
6:55 AM,67.1,55.0,65,30.02,10.0,SSE,6.9,-,N/A,,Clear,160,2013-07-13 11:55:00
7:15 AM,68.2,55.6,64,30.03,10.0,SSE,10.4,-,N/A,,Clear,150,2013-07-13 12:15:00
7:35 AM,68.5,55.4,63,30.04,10.0,SSE,8.1,-,N/A,,Clear,160,2013-07-13 12:35:00
7:55 AM,68.9,55.9,63,30.04,10.0,SSE,10.4,-,N/A,,Clear,150,2013-07-13 12:55:00
8:15 AM,69.4,56.3,63,30.04,10.0,SSE,8.1,-,N/A,,Clear,150,2013-07-13 13:15:00
8:35 AM,70.3,56.7,62,30.04,10.0,SSE,8.1,-,N/A,,Clear,150,2013-07-13 13:35:00
8:55 AM,71.8,57.4,60,30.04,10.0,SSE,8.1,-,N/A,,Clear,150,2013-07-13 13:55:00
9:15 AM,72.7,57.2,58,30.04,10.0,SSE,8.1,-,N/A,,Clear,150,2013-07-13 14:15:00
9:35 AM,73.4,57.4,57,30.04,10.0,SSE,10.4,-,N/A,,Clear,160,2013-07-13 14:35:00
9:55 AM,74.3,57.2,55,30.03,10.0,SSE,13.8,18.4,N/A,,Clear,160,2013-07-13 14:55:00
10:15 AM,74.8,57.7,55,30.04,10.0,SSE,9.2,-,N/A,,Clear,160,2013-07-13 15:15:00
10:35 AM,75.7,57.7,53,30.03,10.0,SSE,8.1,17.3,N/A,,Clear,160,2013-07-13 15:35:00
10:55 AM,76.1,57.9,53,30.04,10.0,SSE,12.7,16.1,N/A,,Clear,150,2013-07-13 15:55:00
11:15 AM,76.8,58.3,53,30.05,10.0,SSE,10.4,-,N/A,,Scattered Clouds,150,2013-07-13 16:15:00
11:35 AM,77.2,58.6,53,30.04,10.0,SSE,10.4,-,N/A,,Scattered Clouds,150,2013-07-13 16:35:00
11:55 AM,77.5,58.1,51,30.04,10.0,SSE,13.8,-,N/A,,Mostly Cloudy,150,2013-07-13 16:55:00
12:15 PM,78.8,59.2,51,30.04,10.0,SE,12.7,16.1,N/A,,Mostly Cloudy,140,2013-07-13 17:15:00
12:35 PM,79.3,58.8,49,30.03,10.0,SSE,15.0,19.6,N/A,,Mostly Cloudy,150,2013-07-13 17:35:00
12:55 PM,78.3,60.6,54,30.04,10.0,SE,11.5,-,N/A,,Mostly Cloudy,130,2013-07-13 17:55:00
1:15 PM,78.8,60.4,53,30.04,10.0,SE,12.7,-,N/A,,Mostly Cloudy,130,2013-07-13 18:15:00
1:35 PM,78.8,59.9,52,30.04,10.0,SE,15.0,-,N/A,,Mostly Cloudy,130,2013-07-13 18:35:00
1:55 PM,78.8,60.3,53,30.05,10.0,ESE,8.1,-,N/A,,Overcast,120,2013-07-13 18:55:00
2:15 PM,79.0,60.4,53,30.05,10.0,SE,11.5,-,N/A,Rain,Light Rain,130,2013-07-13 19:15:00
2:35 PM,78.8,61.3,55,30.04,10.0,SE,12.7,-,N/A,,Overcast,130,2013-07-13 19:35:00
2:55 PM,79.9,61.7,54,30.03,10.0,SE,11.5,-,N/A,,Mostly Cloudy,140,2013-07-13 19:55:00
3:15 PM,81.0,62.1,52,30.03,10.0,SE,12.7,-,N/A,,Scattered Clouds,130,2013-07-13 20:15:00
3:35 PM,80.8,61.5,52,30.02,10.0,SE,15.0,-,N/A,,Clear,130,2013-07-13 20:35:00
3:55 PM,80.2,61.9,53,30.00,10.0,SE,12.7,18.4,N/A,,Clear,140,2013-07-13 20:55:00
4:35 PM,79.9,62.8,56,30.00,10.0,SSE,15.0,18.4,N/A,,Clear,150,2013-07-13 21:35:00
5:15 PM,80.1,62.1,54,30.00,10.0,SSE,13.8,19.6,N/A,,Clear,150,2013-07-13 22:15:00
5:35 PM,79.7,62.6,56,30.00,10.0,SE,15.0,20.7,N/A,,Clear,140,2013-07-13 22:35:00
5:55 PM,79.7,62.4,55,30.00,10.0,SE,12.7,18.4,N/A,,Clear,130,2013-07-13 22:55:00
6:15 PM,79.3,62.8,57,30.00,10.0,SE,10.4,-,N/A,,Clear,140,2013-07-13 23:15:00
6:35 PM,78.8,62.8,58,30.01,10.0,SE,11.5,-,N/A,,Clear,130,2013-07-13 23:35:00
7:15 PM,78.6,61.7,56,30.02,10.0,SE,9.2,-,N/A,,Clear,130,2013-07-14 00:15:00
7:55 PM,77.0,61.2,58,30.01,10.0,SE,13.8,-,N/A,,Clear,130,2013-07-14 00:55:00
8:15 PM,76.3,61.7,60,30.01,10.0,SE,10.4,17.3,N/A,,Clear,130,2013-07-14 01:15:00
8:35 PM,75.6,61.5,62,30.02,10.0,SE,13.8,19.6,N/A,,Clear,130,2013-07-14 01:35:00
8:55 PM,74.5,61.2,63,30.03,10.0,SE,9.2,-,N/A,,Clear,130,2013-07-14 01:55:00
9:15 PM,73.9,61.2,64,30.03,10.0,SE,13.8,19.6,N/A,,Clear,130,2013-07-14 02:15:00
9:35 PM,73.4,60.8,65,30.03,10.0,SE,12.7,16.1,N/A,,Clear,130,2013-07-14 02:35:00
9:55 PM,72.7,60.4,65,30.04,10.0,SE,15.0,-,N/A,,Clear,140,2013-07-14 02:55:00
10:15 PM,72.3,59.2,63,30.05,10.0,SE,11.5,17.3,N/A,,Clear,140,2013-07-14 03:15:00
10:35 PM,72.0,58.5,62,30.05,10.0,SE,11.5,17.3,N/A,,Clear,140,2013-07-14 03:35:00
10:55 PM,71.6,57.7,62,30.05,10.0,SSE,11.5,-,N/A,,Clear,150,2013-07-14 03:55:00
11:15 PM,71.2,57.6,62,30.06,10.0,SE,11.5,-,N/A,,Clear,140,2013-07-14 04:15:00
11:35 PM,70.9,57.7,63,30.06,10.0,SE,9.2,-,N/A,,Clear,140,2013-07-14 04:35:00
11:55 PM,70.9,58.1,64,30.07,10.0,SE,9.2,-,N/A,,Clear,140,2013-07-14 04:55:00